Time;durP1;ratioP1;P1;durP2;ratioP2;P2;SDS_P1;SDS_P2;PMS_P1;PMS_P2;Temp;Humidity;BMP_temperature;BMP_pressure;BME280_temperature;BME280_humidity;BME280_pressure;Samples;Min_cycle;Max_cycle;Signal;HPM_P1;HPM_P2
2021/06/19 00:01:34;;;;;;;10.27;5.57;;;21.70;94.90;;;;;;5106450;28;20082;-57
2021/06/19 00:04:00;;;;;;;17.50;6.40;;;21.70;94.90;;;;;;5106518;28;20048;-59
2021/06/19 00:06:25;;;;;;;10.85;6.05;;;21.70;94.70;;;;;;5099226;28;20044;-58
2021/06/19 00:08:51;;;;;;;11.15;6.07;;;21.70;94.50;;;;;;5107596;28;20047;-53
2021/06/19 00:11:17;;;;;;;13.57;6.60;;;21.80;94.60;;;;;;5111413;28;20036;-59
2021/06/19 00:13:42;;;;;;;11.98;6.40;;;21.70;94.60;;;;;;5111772;28;20537;-58
2021/06/19 00:16:08;;;;;;;14.88;6.15;;;21.70;94.70;;;;;;5111366;28;20063;-58
2021/06/19 00:18:34;;;;;;;13.50;6.25;;;21.60;95.20;;;;;;5111222;28;20036;-58
2021/06/19 00:20:59;;;;;;;12.40;6.65;;;21.60;95.30;;;;;;5112096;28;20407;-59
2021/06/19 00:23:25;;;;;;;10.95;6.50;;;21.60;95.30;;;;;;5110063;27;20039;-58
2021/06/19 00:25:51;;;;;;;12.75;6.97;;;21.60;95.40;;;;;;5111276;28;20495;-55
2021/06/19 00:28:17;;;;;;;13.45;5.72;;;21.50;95.60;;;;;;5099298;28;20135;-57
2021/06/19 00:30:42;;;;;;;10.88;6.82;;;21.50;95.60;;;;;;5091089;28;20064;-57
2021/06/19 00:33:08;;;;;;;14.50;6.72;;;21.50;95.70;;;;;;5101118;28;20036;-57
2021/06/19 00:35:34;;;;;;;13.68;6.72;;;21.50;95.70;;;;;;5111163;28;20604;-55
2021/06/19 00:38:00;;;;;;;10.65;6.68;;;21.40;95.70;;;;;;5110825;28;20070;-58
2021/06/19 00:40:26;;;;;;;15.38;6.45;;;21.50;95.60;;;;;;5111675;28;20494;-59
2021/06/19 00:42:58;;;;;;;11.75;6.18;;;21.40;95.60;;;;;;5110557;28;20112;-58
2021/06/19 00:45:26;;;;;;;11.85;7.10;;;21.40;95.60;;;;;;5110906;27;20209;-60
2021/06/19 00:47:52;;;;;;;10.15;6.65;;;21.40;95.80;;;;;;5110665;28;20035;-59
2021/06/19 00:50:18;;;;;;;13.30;6.28;;;21.30;95.90;;;;;;5111054;28;20810;-59
2021/06/19 00:52:44;;;;;;;13.10;6.40;;;21.30;95.60;;;;;;5110648;28;20043;-60
2021/06/19 00:55:10;;;;;;;22.50;7.25;;;21.40;95.80;;;;;;5111209;28;20035;-58
2021/06/19 00:57:36;;;;;;;9.98;6.15;;;21.40;95.60;;;;;;5104801;28;20595;-57
2021/06/19 01:00:04;;;;;;;13.80;6.65;;;21.40;95.50;;;;;;5108526;28;20031;-59
2021/06/19 01:02:30;;;;;;;15.27;6.57;;;21.30;95.60;;;;;;5100702;28;20040;-57
2021/06/19 01:04:56;;;;;;;16.13;5.93;;;21.30;95.70;;;;;;5094427;28;20039;-58
2021/06/19 01:07:22;;;;;;;;;;;21.30;95.50;;;;;;5101489;28;20095;-59
2021/06/19 01:09:47;;;;;;;15.20;6.03;;;21.30;95.60;;;;;;5102366;28;19919;-59
2021/06/19 01:12:13;;;;;;;9.30;6.00;;;21.30;95.60;;;;;;5092961;28;20091;-58
2021/06/19 01:14:38;;;;;;;12.48;5.93;;;21.30;95.60;;;;;;5110071;28;20379;-58
2021/06/19 01:17:04;;;;;;;15.63;6.95;;;21.20;95.70;;;;;;5110235;28;20067;-59
2021/06/19 01:19:29;;;;;;;15.43;6.68;;;21.20;95.80;;;;;;5110708;28;20617;-59
2021/06/19 01:21:55;;;;;;;;;;;21.20;96.10;;;;;;5109840;28;20495;-59
2021/06/19 01:24:23;;;;;;;18.48;6.38;;;21.20;96.30;;;;;;5110371;28;20010;-59
2021/06/19 01:26:49;;;;;;;10.88;5.82;;;21.20;95.80;;;;;;5109852;28;20047;-58
2021/06/19 01:29:14;;;;;;;14.68;6.38;;;21.10;95.90;;;;;;5101968;28;20135;-59
2021/06/19 01:31:40;;;;;;;;;;;21.10;96.00;;;;;;5108282;27;20496;-57
2021/06/19 01:34:06;;;;;;;13.73;5.72;;;21.20;96.10;;;;;;5106015;28;20121;-58
2021/06/19 01:36:32;;;;;;;13.75;6.60;;;21.20;96.10;;;;;;5109329;28;20066;-57
2021/06/19 01:38:58;;;;;;;;;;;21.20;95.70;;;;;;5110080;28;20035;-59
2021/06/19 01:41:32;;;;;;;18.40;6.47;;;21.20;95.90;;;;;;5110222;28;19919;-56
2021/06/19 01:44:07;;;;;;;12.70;6.25;;;21.20;95.90;;;;;;5109775;28;20051;-59
2021/06/19 01:46:35;;;;;;;8.05;5.25;;;21.20;95.90;;;;;;5109364;27;20044;-58
2021/06/19 01:49:01;;;;;;;10.73;6.25;;;21.20;95.70;;;;;;5110065;28;20070;-59
2021/06/19 01:51:27;;;;;;;;;;;21.20;95.70;;;;;;5107281;27;20082;-54
2021/06/19 01:53:53;;;;;;;13.75;5.72;;;21.10;95.80;;;;;;5109711;28;19916;-58
2021/06/19 01:56:19;;;;;;;15.07;6.65;;;21.10;96.00;;;;;;5104626;28;20039;-58
2021/06/19 01:58:45;;;;;;;15.27;6.40;;;21.10;96.00;;;;;;5093696;28;20040;-55
2021/06/19 02:01:12;;;;;;;;;;;21.00;96.10;;;;;;5088823;28;20036;-58
2021/06/19 02:03:37;;;;;;;9.63;5.60;;;21.10;96.20;;;;;;5089945;28;19919;-59
2021/06/19 02:06:05;;;;;;;13.75;7.07;;;21.10;96.10;;;;;;5088634;28;20108;-59
2021/06/19 02:08:31;;;;;;;12.95;5.90;;;21.00;95.90;;;;;;5088239;28;20180;-58
2021/06/19 02:10:58;;;;;;;16.55;6.05;;;21.00;96.10;;;;;;5089852;28;20066;-58
2021/06/19 02:13:24;;;;;;;15.13;5.57;;;20.90;96.30;;;;;;5088524;28;20812;-58
2021/06/19 02:15:50;;;;;;;;;;;21.00;96.30;;;;;;5089123;28;20028;-55
2021/06/19 02:18:16;;;;;;;10.30;6.13;;;21.00;96.10;;;;;;5089186;28;19977;-57
2021/06/19 02:20:43;;;;;;;10.90;5.95;;;21.00;95.90;;;;;;5088922;28;20131;-56
2021/06/19 02:23:09;;;;;;;13.82;7.05;;;21.00;96.10;;;;;;5088166;28;20502;-58
2021/06/19 02:25:35;;;;;;;12.55;6.40;;;21.00;95.80;;;;;;5088668;28;20135;-58
2021/06/19 02:28:02;;;;;;;;;;;21.00;96.20;;;;;;5105949;28;20533;-57
2021/06/19 02:30:39;;;;;;;10.82;5.93;;;20.90;96.00;;;;;;5087395;28;19950;-58
2021/06/19 02:33:05;;;;;;;16.92;7.22;;;20.90;96.30;;;;;;5092880;28;20050;-58
2021/06/19 02:35:34;;;;;;;14.60;6.22;;;20.80;96.10;;;;;;5095248;28;20043;-57
2021/06/19 02:38:01;;;;;;;12.18;7.18;;;20.80;96.20;;;;;;5087610;28;20051;-57
2021/06/19 02:40:27;;;;;;;17.23;6.25;;;20.80;96.20;;;;;;5087582;28;20051;-58
2021/06/19 02:42:52;;;;;;;;;;;20.90;96.30;;;;;;5088408;28;20040;-59
2021/06/19 02:45:19;;;;;;;9.10;5.88;;;20.90;96.20;;;;;;5087236;28;19927;-58
2021/06/19 02:47:47;;;;;;;14.82;6.63;;;20.80;96.10;;;;;;5087664;28;20115;-60
2021/06/19 02:50:15;;;;;;;18.05;7.65;;;20.60;96.50;;;;;;5087680;28;20155;-59
2021/06/19 02:52:43;;;;;;;11.98;6.10;;;20.50;96.80;;;;;;5087632;28;20089;-58
2021/06/19 02:55:10;;;;;;;13.85;6.50;;;20.50;97.10;;;;;;5087503;28;20047;-56
2021/06/19 02:57:36;;;;;;;11.93;6.35;;;20.50;97.30;;;;;;5100486;28;20044;-57
2021/06/19 03:00:03;;;;;;;;;;;20.30;97.20;;;;;;5106372;28;20071;-58
2021/06/19 03:02:29;;;;;;;21.83;6.35;;;20.30;97.40;;;;;;5107036;28;20006;-59
2021/06/19 03:04:54;;;;;;;;;;;20.30;97.90;;;;;;5109105;28;20518;-55
2021/06/19 03:07:20;;;;;;;16.98;7.20;;;20.20;97.60;;;;;;5106969;28;20400;-58
2021/06/19 03:09:45;;;;;;;;;;;20.10;97.70;;;;;;5108142;28;20540;-55
2021/06/19 03:12:11;;;;;;;12.60;7.20;;;20.20;97.80;;;;;;5108288;28;20002;-58
2021/06/19 03:14:36;;;;;;;;;;;20.00;97.70;;;;;;5108821;28;20566;-58
2021/06/19 03:17:02;;;;;;;16.38;6.25;;;20.00;98.00;;;;;;5107925;28;19938;-59
2021/06/19 03:19:29;;;;;;;;;;;20.00;98.00;;;;;;5109070;28;20051;-59
2021/06/19 03:22:00;;;;;;;16.33;6.93;;;19.90;98.00;;;;;;5108316;28;20375;-63
2021/06/19 03:24:27;;;;;;;11.70;7.15;;;19.90;98.10;;;;;;5102391;28;20121;-59
2021/06/19 03:26:53;;;;;;;12.57;7.65;;;19.80;98.40;;;;;;5104237;28;20046;-60
2021/06/19 03:29:19;;;;;;;11.93;7.68;;;19.70;98.50;;;;;;5101227;28;20043;-57
2021/06/19 03:31:45;;;;;;;;;;;19.60;98.70;;;;;;5107472;28;20043;-59
2021/06/19 03:34:10;;;;;;;16.25;7.75;;;19.60;98.90;;;;;;5108289;28;19962;-58
2021/06/19 03:36:36;;;;;;;;;;;19.60;99.30;;;;;;5108632;28;20040;-59
2021/06/19 03:39:02;;;;;;;11.55;6.55;;;19.70;99.00;;;;;;5107725;28;19953;-59
2021/06/19 03:41:27;;;;;;;15.07;6.80;;;19.70;99.00;;;;;;5107955;28;20065;-60
2021/06/19 03:43:53;;;;;;;;;;;19.70;99.30;;;;;;5110663;28;20044;-58
2021/06/19 03:46:18;;;;;;;13.30;7.18;;;19.70;99.20;;;;;;5112004;28;19922;-57
2021/06/19 03:48:44;;;;;;;;;;;19.70;99.10;;;;;;5112579;28;20075;-56
2021/06/19 03:51:09;;;;;;;14.73;6.95;;;19.80;99.20;;;;;;5112511;28;20035;-58
2021/06/19 03:53:35;;;;;;;10.70;7.10;;;20.00;98.50;;;;;;5111498;27;20032;-58
2021/06/19 03:56:00;;;;;;;;;;;20.10;98.20;;;;;;5107337;28;20529;-57
2021/06/19 03:58:26;;;;;;;11.40;7.18;;;20.00;98.20;;;;;;5107216;28;19976;-58
2021/06/19 04:00:51;;;;;;;12.95;7.07;;;19.70;98.50;;;;;;5091897;28;20044;-57
2021/06/19 04:03:17;;;;;;;;;;;19.80;98.70;;;;;;5100832;28;20032;-58
2021/06/19 04:05:42;;;;;;;13.25;6.93;;;19.90;98.80;;;;;;5103127;28;19988;-57
2021/06/19 04:08:08;;;;;;;13.65;7.43;;;19.90;98.70;;;;;;5110882;28;20042;-58
2021/06/19 04:10:33;;;;;;;13.73;7.53;;;19.90;98.80;;;;;;5112897;28;20044;-58
2021/06/19 04:12:59;;;;;;;13.13;6.97;;;20.00;98.60;;;;;;5111140;28;20038;-56
2021/06/19 04:15:25;;;;;;;15.88;7.95;;;20.00;98.60;;;;;;5110685;28;20047;-57
2021/06/19 04:17:51;;;;;;;;;;;20.10;98.90;;;;;;5111791;28;20871;-52
2021/06/19 04:20:17;;;;;;;14.00;7.43;;;20.00;99.10;;;;;;5112160;28;19916;-57
2021/06/19 04:22:43;;;;;;;;;;;20.10;98.90;;;;;;5111476;28;20052;-58
2021/06/19 04:25:10;;;;;;;13.98;7.30;;;20.40;98.20;;;;;;5110977;28;20061;-57
2021/06/19 04:27:45;;;;;;;14.20;7.43;;;20.40;98.20;;;;;;5105212;28;20120;-56
2021/06/19 04:30:13;;;;;;;12.65;8.10;;;20.40;98.50;;;;;;5110331;28;20050;-56
2021/06/19 04:32:39;;;;;;;12.05;7.82;;;20.40;98.30;;;;;;5107857;28;20043;-59
2021/06/19 04:35:06;;;;;;;21.30;8.52;;;20.40;98.50;;;;;;5099700;28;20043;-53
2021/06/19 04:37:31;;;;;;;13.57;7.25;;;21.00;97.80;;;;;;5089288;28;20051;-57
2021/06/19 04:40:06;;;;;;;;;;;21.20;97.20;;;;;;5091306;28;20036;-58
2021/06/19 04:42:39;;;;;;;8.90;6.80;;;21.20;97.50;;;;;;5090704;28;19927;-56
2021/06/19 04:45:08;;;;;;;12.13;6.70;;;21.20;97.40;;;;;;5091073;28;20040;-60
2021/06/19 04:47:35;;;;;;;10.30;6.43;;;21.30;97.50;;;;;;5089742;28;20048;-59
2021/06/19 04:50:05;;;;;;;14.18;5.63;;;21.40;97.60;;;;;;5091304;28;20044;-59
2021/06/19 04:52:33;;;;;;;12.38;4.88;;;21.40;96.90;;;;;;5090055;28;20070;-58
2021/06/19 04:54:59;;;;;;;9.75;4.05;;;21.50;96.80;;;;;;5089987;28;20048;-62
2021/06/19 04:57:25;;;;;;;9.38;4.18;;;21.60;95.90;;;;;;5106670;28;20042;-58
2021/06/19 04:59:51;;;;;;;12.43;3.55;;;21.80;95.60;;;;;;5096169;28;20562;-58
2021/06/19 05:02:17;;;;;;;10.40;3.58;;;22.20;94.80;;;;;;5106311;28;20047;-57
2021/06/19 05:04:43;;;;;;;10.82;3.17;;;22.30;94.20;;;;;;5103210;28;20103;-57
2021/06/19 05:07:08;;;;;;;45.72;3.67;;;22.30;94.10;;;;;;5109579;28;20184;-58
2021/06/19 05:09:34;;;;;;;4.93;2.63;;;22.20;93.80;;;;;;5110599;28;20511;-58
2021/06/19 05:11:59;;;;;;;5.35;2.92;;;22.20;94.40;;;;;;5109699;28;20035;-58
2021/06/19 05:14:25;;;;;;;13.40;3.22;;;22.30;93.80;;;;;;5111088;28;20047;-58
2021/06/19 05:16:51;;;;;;;6.45;3.00;;;22.30;93.20;;;;;;5109845;28;20047;-59
2021/06/19 05:19:18;;;;;;;11.55;2.60;;;22.30;93.40;;;;;;5110459;28;20364;-57
2021/06/19 05:21:44;;;;;;;6.00;2.38;;;22.30;93.00;;;;;;5102775;28;20128;-58
2021/06/19 05:24:11;;;;;;;7.13;2.70;;;22.40;92.50;;;;;;5089958;28;20076;-55
2021/06/19 05:26:37;;;;;;;2.65;1.98;;;22.40;92.40;;;;;;5095533;28;20044;-59
2021/06/19 05:29:03;;;;;;;6.05;2.20;;;22.40;91.80;;;;;;5099358;28;20130;-59
2021/06/19 05:31:29;;;;;;;6.35;2.00;;;22.50;90.90;;;;;;5088786;28;20120;-57
2021/06/19 05:33:54;;;;;;;4.93;2.13;;;22.60;91.00;;;;;;5102564;28;20088;-59
2021/06/19 05:36:20;;;;;;;7.43;2.17;;;22.80;90.20;;;;;;5089164;28;20111;-59
2021/06/19 05:38:45;;;;;;;4.20;1.65;;;22.80;88.50;;;;;;5089857;28;20036;-58
2021/06/19 05:41:11;;;;;;;4.47;1.80;;;22.80;89.20;;;;;;5090001;28;20068;-58
2021/06/19 05:43:36;;;;;;;4.70;1.63;;;22.90;88.60;;;;;;5088887;28;20051;-59
2021/06/19 05:46:02;;;;;;;5.03;1.73;;;23.10;86.50;;;;;;5088509;28;20032;-58
2021/06/19 05:48:28;;;;;;;4.65;1.52;;;23.30;85.50;;;;;;5090053;28;20044;-58
2021/06/19 05:50:53;;;;;;;4.15;1.63;;;23.30;84.60;;;;;;5090165;28;20050;-59
2021/06/19 05:53:19;;;;;;;2.47;1.40;;;23.30;84.20;;;;;;5088589;28;20067;-58
2021/06/19 05:55:45;;;;;;;3.22;1.35;;;23.20;84.60;;;;;;5092120;28;20043;-58
2021/06/19 05:58:10;;;;;;;2.45;1.38;;;23.20;84.60;;;;;;5102222;28;20048;-58
2021/06/19 06:00:37;;;;;;;2.95;1.15;;;23.30;84.50;;;;;;5104862;27;20170;-59
2021/06/19 06:03:03;;;;;;;6.80;1.55;;;23.30;84.90;;;;;;5098511;28;20043;-59
2021/06/19 06:05:28;;;;;;;3.85;1.48;;;23.40;85.70;;;;;;5089011;28;20040;-60
2021/06/19 06:07:55;;;;;;;6.35;1.40;;;23.30;84.50;;;;;;5088222;28;20373;-58
2021/06/19 06:10:21;;;;;;;7.22;2.22;;;23.40;85.70;;;;;;5089549;28;20162;-59
2021/06/19 06:12:46;;;;;;;2.97;1.70;;;23.50;84.70;;;;;;5086826;28;20553;-58
2021/06/19 06:15:12;;;;;;;2.33;1.50;;;23.80;83.70;;;;;;5088868;28;20395;-60
2021/06/19 06:17:38;;;;;;;3.53;1.30;;;24.30;80.70;;;;;;5089053;28;20043;-56
2021/06/19 06:20:05;;;;;;;3.60;1.40;;;25.10;77.80;;;;;;5089298;28;20492;-60
2021/06/19 06:22:31;;;;;;;6.57;1.40;;;26.10;75.10;;;;;;5088672;28;20462;-59
2021/06/19 06:24:56;;;;;;;3.67;1.65;;;25.60;76.50;;;;;;5088837;28;20040;-58
2021/06/19 06:27:22;;;;;;;2.35;1.52;;;25.00;78.50;;;;;;5101188;28;20640;-58
2021/06/19 06:29:48;;;;;;;2.78;1.65;;;24.70;79.70;;;;;;5092231;28;20130;-58
2021/06/19 06:32:13;;;;;;;6.03;1.88;;;24.40;81.60;;;;;;5091247;28;20032;-59
2021/06/19 06:34:39;;;;;;;6.85;1.63;;;24.60;81.30;;;;;;5109264;28;20436;-60
2021/06/19 06:37:07;;;;;;;6.75;1.38;;;24.70;80.80;;;;;;5108429;28;20070;-58
2021/06/19 06:39:32;;;;;;;4.43;1.50;;;24.70;82.20;;;;;;5109096;28;20047;-59
2021/06/19 06:42:00;;;;;;;3.03;1.70;;;24.60;82.00;;;;;;5108764;28;20047;-58
2021/06/19 06:44:26;;;;;;;3.33;1.75;;;24.40;81.20;;;;;;5109291;28;20439;-58
2021/06/19 06:46:51;;;;;;;4.00;1.40;;;24.30;82.50;;;;;;5107620;28;20047;-58
2021/06/19 06:49:17;;;;;;;2.63;1.50;;;24.20;82.10;;;;;;5109342;28;20047;-56
2021/06/19 06:51:43;;;;;;;4.90;1.50;;;24.10;82.60;;;;;;5109031;28;20062;-58
2021/06/19 06:54:08;;;;;;;4.22;1.60;;;24.30;81.40;;;;;;5099678;28;20055;-57
2021/06/19 06:56:34;;;;;;;2.55;0.98;;;24.20;79.10;;;;;;5104577;28;20062;-58
2021/06/19 06:59:00;;;;;;;2.80;1.60;;;24.10;78.50;;;;;;5100290;28;20048;-58
2021/06/19 07:01:26;;;;;;;2.03;1.40;;;24.00;80.90;;;;;;5108212;28;20154;-59
2021/06/19 07:03:55;;;;;;;4.07;1.33;;;24.00;80.90;;;;;;5108263;28;20036;-58
2021/06/19 07:06:22;;;;;;;3.90;1.63;;;23.90;81.80;;;;;;5107244;28;20077;-59
2021/06/19 07:08:48;;;;;;;4.35;1.23;;;23.80;80.50;;;;;;5109026;28;20750;-58
2021/06/19 07:11:13;;;;;;;3.80;1.23;;;23.80;81.20;;;;;;5089838;28;20071;-57
2021/06/19 07:13:39;;;;;;;4.63;1.70;;;24.00;80.80;;;;;;5081594;28;20050;-59
2021/06/19 07:16:05;;;;;;;2.38;1.48;;;24.10;80.50;;;;;;5107973;28;20490;-60
2021/06/19 07:18:30;;;;;;;4.72;1.83;;;24.30;81.10;;;;;;5108536;28;20078;-59
2021/06/19 07:20:56;;;;;;;4.00;1.33;;;24.40;79.00;;;;;;5108447;28;20039;-56
2021/06/19 07:23:23;;;;;;;6.60;1.55;;;24.30;78.40;;;;;;5107610;28;20031;-60
2021/06/19 07:25:48;;;;;;;2.80;1.17;;;24.30;78.20;;;;;;5099716;28;20044;-59
2021/06/19 07:28:14;;;;;;;1.85;1.48;;;24.40;77.80;;;;;;5099493;28;20069;-58
2021/06/19 07:30:40;;;;;;;4.95;1.55;;;24.50;76.80;;;;;;5107832;28;20070;-58
2021/06/19 07:33:05;;;;;;;5.90;3.10;;;24.70;77.10;;;;;;5108386;28;20499;-57
2021/06/19 07:35:31;;;;;;;5.18;2.58;;;25.10;75.50;;;;;;5108329;28;20208;-59
2021/06/19 07:37:57;;;;;;;4.72;2.00;;;25.30;75.90;;;;;;5108142;28;20043;-60
2021/06/19 07:40:23;;;;;;;5.00;2.08;;;25.60;73.30;;;;;;5108314;28;20843;-59
2021/06/19 07:42:48;;;;;;;3.65;1.55;;;25.70;72.90;;;;;;5108311;28;20050;-57
2021/06/19 07:45:14;;;;;;;2.15;1.65;;;26.20;74.30;;;;;;5107344;28;20044;-60
2021/06/19 07:47:40;;;;;;;4.07;1.60;;;25.90;74.40;;;;;;5107822;28;20048;-60
2021/06/19 07:50:07;;;;;;;3.00;1.60;;;25.70;74.60;;;;;;5109087;28;20043;-59
2021/06/19 07:52:32;;;;;;;4.30;2.00;;;25.60;76.10;;;;;;5107535;28;20040;-60
2021/06/19 07:54:59;;;;;;;2.45;1.52;;;25.40;75.10;;;;;;5107777;28;20460;-57
2021/06/19 07:57:24;;;;;;;5.93;1.75;;;25.30;75.80;;;;;;5103255;28;20077;-59
2021/06/19 07:59:50;;;;;;;4.82;1.60;;;25.30;73.90;;;;;;5091912;28;20076;-60
2021/06/19 08:02:17;;;;;;;4.95;1.90;;;25.20;74.60;;;;;;5086785;28;20048;-57
2021/06/19 08:04:42;;;;;;;3.03;2.22;;;25.30;74.00;;;;;;5087753;28;20051;-60
2021/06/19 08:07:08;;;;;;;3.75;2.03;;;25.70;74.90;;;;;;5087987;28;20111;-60
2021/06/19 08:09:33;;;;;;;6.50;1.95;;;26.30;72.80;;;;;;5096043;28;20131;-62
2021/06/19 08:12:00;;;;;;;4.50;2.00;;;26.80;69.30;;;;;;5097587;28;20036;-61
2021/06/19 08:14:26;;;;;;;4.20;1.83;;;27.20;68.40;;;;;;5088087;28;20043;-62
2021/06/19 08:16:56;;;;;;;4.60;1.77;;;27.30;68.50;;;;;;5086745;28;20048;-60
2021/06/19 08:19:23;;;;;;;6.65;2.90;;;26.90;66.10;;;;;;5088044;28;20431;-58
2021/06/19 08:21:49;;;;;;;9.00;2.20;;;27.20;68.20;;;;;;5086966;28;20629;-60
2021/06/19 08:24:15;;;;;;;2.55;1.20;;;27.10;67.30;;;;;;5087678;28;20114;-56
2021/06/19 08:26:41;;;;;;;2.47;1.70;;;27.10;65.00;;;;;;5096508;28;20242;-59
2021/06/19 08:29:07;;;;;;;1.75;1.40;;;27.10;64.70;;;;;;5098251;28;20081;-60
2021/06/19 08:31:38;;;;;;;4.85;1.35;;;27.20;65.40;;;;;;5109769;28;20096;-59
2021/06/19 08:34:05;;;;;;;6.95;1.73;;;27.50;63.20;;;;;;5095677;28;20040;-59
2021/06/19 08:36:31;;;;;;;2.28;1.13;;;28.20;60.10;;;;;;5090966;28;20036;-58
2021/06/19 08:38:56;;;;;;;2.33;1.10;;;29.20;59.30;;;;;;5090448;28;20040;-60
2021/06/19 08:41:22;;;;;;;5.63;1.40;;;29.40;58.60;;;;;;5090433;28;20105;-58
2021/06/19 08:43:48;;;;;;;3.25;1.48;;;29.80;58.20;;;;;;5090971;28;20040;-60
2021/06/19 08:46:19;;;;;;;5.57;1.55;;;29.60;55.60;;;;;;5089876;28;20035;-61
2021/06/19 08:48:48;;;;;;;3.67;1.60;;;29.40;58.10;;;;;;5102912;28;20048;-60
2021/06/19 08:51:14;;;;;;;1.92;1.17;;;29.30;55.80;;;;;;5102077;28;20036;-59
2021/06/19 08:53:40;;;;;;;4.63;2.90;;;29.10;59.00;;;;;;5110789;28;20747;-60
2021/06/19 08:56:05;;;;;;;7.80;1.98;;;29.00;59.50;;;;;;5105859;27;20043;-59
2021/06/19 08:58:31;;;;;;;6.18;1.88;;;29.30;59.30;;;;;;5105751;28;20051;-59
2021/06/19 09:00:56;;;;;;;5.88;1.70;;;29.40;60.30;;;;;;5090418;28;20032;-60
2021/06/19 09:03:27;;;;;;;3.50;1.95;;;29.30;57.30;;;;;;5088493;28;20035;-59
2021/06/19 09:06:13;;;;;;;3.88;1.30;;;29.00;56.20;;;;;;5089675;28;20544;-60
2021/06/19 09:09:00;;;;;;;1.50;1.20;;;28.60;59.40;;;;;;5090370;28;20039;-60
2021/06/19 09:11:34;;;;;;;5.07;1.65;;;28.00;57.50;;;;;;5089174;28;20058;-60
2021/06/19 09:14:08;;;;;;;3.30;1.40;;;28.00;60.20;;;;;;5109833;28;20047;-60
2021/06/19 09:16:36;;;;;;;4.47;1.73;;;28.10;60.30;;;;;;5101868;28;20036;-60
2021/06/19 09:19:02;;;;;;;3.13;1.20;;;28.10;59.30;;;;;;5111377;28;20040;-59
2021/06/19 09:21:33;;;;;;;2.15;1.30;;;28.00;60.00;;;;;;5110091;27;20123;-60
2021/06/19 09:23:59;;;;;;;2.80;1.02;;;28.10;59.90;;;;;;5109933;28;20074;-60
2021/06/19 09:26:32;;;;;;;2.45;1.30;;;28.00;60.10;;;;;;5107163;28;20044;-58
2021/06/19 09:29:11;;;;;;;4.22;1.55;;;27.80;57.80;;;;;;5101872;28;20105;-59
2021/06/19 09:31:43;;;;;;;4.43;2.70;;;27.80;57.70;;;;;;5088834;28;20050;-61
2021/06/19 09:34:15;;;;;;;1.65;1.55;;;27.70;57.90;;;;;;5107031;28;20031;-59
2021/06/19 09:36:44;;;;;;;2.13;1.50;;;27.90;60.10;;;;;;5089739;28;20511;-58
2021/06/19 09:39:12;;;;;;;2.13;1.50;;;28.00;58.40;;;;;;5088035;28;20059;-59
2021/06/19 09:41:40;;;;;;;3.83;1.25;;;27.80;57.10;;;;;;5089717;28;20753;-59
2021/06/19 09:44:06;;;;;;;3.03;1.15;;;27.70;59.80;;;;;;5090264;28;20115;-60
2021/06/19 09:46:32;;;;;;;2.85;1.20;;;27.90;59.70;;;;;;5088747;28;20790;-60
2021/06/19 09:49:14;;;;;;;2.72;0.95;;;27.90;56.00;;;;;;5102731;28;20410;-59
2021/06/19 09:51:50;;;;;;;2.63;1.02;;;28.00;54.70;;;;;;5109164;28;20051;-60
2021/06/19 09:54:18;;;;;;;1.88;0.80;;;28.20;54.00;;;;;;5109744;28;20048;-59
2021/06/19 09:56:47;;;;;;;1.70;1.30;;;28.30;57.50;;;;;;5106263;28;20046;-59
2021/06/19 09:59:39;;;;;;;1.15;0.85;;;28.40;54.50;;;;;;5099252;28;20038;-59
2021/06/19 10:02:23;;;;;;;3.08;1.20;;;28.50;53.50;;;;;;5089356;28;20042;-58
2021/06/19 10:04:51;;;;;;;4.70;1.10;;;28.50;52.90;;;;;;5109894;27;20368;-59
2021/06/19 10:07:17;;;;;;;2.53;0.70;;;28.40;52.80;;;;;;5109318;28;20039;-59
2021/06/19 10:09:47;;;;;;;2.45;0.90;;;28.30;53.30;;;;;;5109435;28;20089;-58
2021/06/19 10:12:13;;;;;;;1.42;1.08;;;28.30;54.40;;;;;;5109139;28;20046;-55
2021/06/19 10:14:39;;;;;;;1.95;0.82;;;28.40;55.50;;;;;;5109779;28;20043;-59
2021/06/19 10:17:06;;;;;;;2.25;0.93;;;28.40;52.40;;;;;;5108531;28;20040;-59
2021/06/19 10:19:32;;;;;;;4.57;1.15;;;28.20;53.20;;;;;;5108481;28;20047;-57
2021/06/19 10:21:58;;;;;;;1.50;0.90;;;28.10;52.60;;;;;;5109162;28;20251;-59
2021/06/19 10:24:25;;;;;;;7.80;1.20;;;28.10;55.30;;;;;;5108808;28;20086;-57
2021/06/19 10:26:52;;;;;;;3.33;1.02;;;28.00;53.90;;;;;;5108601;28;20066;-56
2021/06/19 10:29:20;;;;;;;1.17;0.93;;;27.90;56.40;;;;;;5101304;28;20043;-59
2021/06/19 10:31:50;;;;;;;3.00;0.90;;;28.10;54.30;;;;;;5108550;28;20028;-59
2021/06/19 10:34:24;;;;;;;1.98;1.00;;;28.10;53.80;;;;;;5092362;28;20040;-58
2021/06/19 10:37:08;;;;;;;5.05;1.25;;;28.40;55.50;;;;;;5088741;28;20040;-57
2021/06/19 10:39:44;;;;;;;3.53;1.08;;;28.60;54.20;;;;;;5088807;28;20040;-60
2021/06/19 10:42:16;;;;;;;;;;;28.50;52.70;;;;;;5088558;28;20032;-58
2021/06/19 10:44:48;;;;;;;2.03;1.20;;;28.50;54.40;;;;;;5089319;28;19916;-59
2021/06/19 10:47:13;;;;;;;4.47;1.10;;;28.50;55.30;;;;;;5087660;28;20079;-60
2021/06/19 10:49:42;;;;;;;2.65;1.00;;;28.40;53.60;;;;;;5107201;28;20063;-58
2021/06/19 10:52:29;;;;;;;3.75;1.15;;;28.60;55.30;;;;;;5108632;28;20380;-58
2021/06/19 10:55:10;;;;;;;1.98;1.20;;;28.90;56.10;;;;;;5107951;28;20534;-58
2021/06/19 10:57:47;;;;;;;1.50;1.02;;;28.90;53.30;;;;;;5105318;28;20067;-58
2021/06/19 11:00:44;;;;;;;1.63;0.98;;;28.80;54.00;;;;;;5088901;28;20127;-57
2021/06/19 11:03:10;;;;;;;4.57;2.13;;;28.90;54.20;;;;;;5081490;28;20135;-56
2021/06/19 11:05:41;;;;;;;2.13;1.48;;;28.70;55.90;;;;;;5087047;28;20130;-58
2021/06/19 11:08:11;;;;;;;2.45;1.33;;;28.70;58.30;;;;;;5087897;28;20043;-58
2021/06/19 11:10:46;;;;;;;1.70;0.90;;;28.70;53.50;;;;;;5088298;28;20043;-58
2021/06/19 11:13:30;;;;;;;2.30;1.05;;;29.00;56.30;;;;;;5088007;28;20047;-57
2021/06/19 11:16:01;;;;;;;3.50;1.40;;;29.20;55.10;;;;;;5086974;28;20184;-58
2021/06/19 11:18:49;;;;;;;2.03;1.15;;;29.20;48.60;;;;;;5088126;28;20861;-59
2021/06/19 11:21:16;;;;;;;1.58;1.17;;;29.10;51.30;;;;;;5087547;28;20048;-59
2021/06/19 11:24:00;;;;;;;3.70;1.20;;;29.00;49.10;;;;;;5096229;28;20058;-58
2021/06/19 11:26:46;;;;;;;3.22;1.15;;;28.80;50.00;;;;;;5100878;28;20515;-58
2021/06/19 11:29:38;;;;;;;4.32;0.85;;;29.00;50.50;;;;;;5100238;28;20090;-58
2021/06/19 11:32:29;;;;;;;3.30;1.55;;;29.00;47.90;;;;;;5094884;28;20418;-58
2021/06/19 11:34:58;;;;;;;1.25;0.90;;;29.30;48.10;;;;;;5087932;28;20040;-60
2021/06/19 11:37:24;;;;;;;5.47;1.13;;;29.20;48.10;;;;;;5086871;28;20135;-58
2021/06/19 11:39:49;;;;;;;2.20;0.93;;;29.00;48.00;;;;;;5087866;28;20032;-58
2021/06/19 11:42:16;;;;;;;2.10;0.95;;;29.00;47.30;;;;;;5087130;28;20045;-58
2021/06/19 11:44:46;;;;;;;2.10;0.95;;;29.10;49.80;;;;;;5086093;28;20043;-58
2021/06/19 11:47:13;;;;;;;2.85;1.23;;;28.90;48.90;;;;;;5087391;28;20093;-59
2021/06/19 11:49:45;;;;;;;2.75;1.02;;;28.90;49.70;;;;;;5106200;28;20039;-60
2021/06/19 11:52:20;;;;;;;1.83;1.25;;;28.90;51.30;;;;;;5107358;28;20027;-58
2021/06/19 11:54:54;;;;;;;3.55;1.30;;;29.00;51.80;;;;;;5107402;28;20499;-60
2021/06/19 11:57:26;;;;;;;1.70;1.08;;;28.90;48.90;;;;;;5102162;28;20048;-59
2021/06/19 12:00:07;;;;;;;5.03;1.08;;;29.00;50.10;;;;;;5104451;28;20062;-59
2021/06/19 12:02:32;;;;;;;1.75;1.10;;;29.10;47.90;;;;;;5107902;28;20402;-60
2021/06/19 12:05:12;;;;;;;8.38;0.82;;;29.10;47.80;;;;;;5107979;28;20506;-60
2021/06/19 12:07:38;;;;;;;1.00;0.70;;;29.00;48.90;;;;;;5104464;28;20134;-59
2021/06/19 12:10:24;;;;;;;1.83;0.95;;;29.00;46.10;;;;;;5110484;28;20455;-60
2021/06/19 12:13:01;;;;;;;2.38;0.90;;;29.00;50.30;;;;;;5109280;28;20119;-58
2021/06/19 12:15:28;;;;;;;5.95;1.90;;;29.00;48.80;;;;;;5102872;28;20055;-61
2021/06/19 12:17:53;;;;;;;2.33;1.23;;;29.20;46.50;;;;;;5109094;28;20050;-61
2021/06/19 12:20:21;;;;;;;1.80;1.17;;;29.40;46.10;;;;;;5102148;28;20040;-61
2021/06/19 12:22:47;;;;;;;1.70;0.95;;;29.50;47.70;;;;;;5101314;28;20044;-61
2021/06/19 12:25:26;;;;;;;2.70;1.20;;;29.60;46.50;;;;;;5099030;28;20119;-61
2021/06/19 12:27:52;;;;;;;2.00;0.75;;;29.80;50.00;;;;;;5091385;28;20047;-59
2021/06/19 12:30:18;;;;;;;1.95;0.90;;;29.80;46.40;;;;;;5090833;28;20519;-59
2021/06/19 12:32:44;;;;;;;5.25;1.00;;;29.90;48.30;;;;;;5094399;28;20118;-60
2021/06/19 12:35:15;;;;;;;3.22;1.38;;;29.90;48.30;;;;;;5111066;28;20126;-57
2021/06/19 12:37:58;;;;;;;1.00;0.82;;;29.90;46.60;;;;;;5111746;28;20047;-63
2021/06/19 12:40:32;;;;;;;3.13;0.88;;;29.80;47.00;;;;;;5107023;28;20059;-61
2021/06/19 12:42:58;;;;;;;1.25;0.63;;;29.80;44.60;;;;;;5107818;28;20882;-62
2021/06/19 12:45:35;;;;;;;1.58;0.80;;;29.70;43.80;;;;;;5110522;28;20139;-63
2021/06/19 12:48:04;;;;;;;1.65;1.02;;;29.60;44.90;;;;;;5111725;28;20044;-58
2021/06/19 12:50:32;;;;;;;1.73;0.80;;;29.70;44.30;;;;;;5102695;28;20100;-60
2021/06/19 12:53:00;;;;;;;2.00;0.85;;;29.60;45.00;;;;;;5110858;28;20039;-60
2021/06/19 12:55:28;;;;;;;1.52;0.90;;;29.60;46.70;;;;;;5109302;28;20384;-57